Aviation Digital Data Service (ADDS)

Output produced by TAFs form (1119 UTC 20 October 2014)
found at http://aviationweather.gov/adds/tafs/
 
KMTJ 200520Z 2006/2106 16007KT P6SM SCT120 
     FM201700 VRB03KT P6SM SCT100 
     FM202100 29007KT P6SM SCT100 BKN200 
     FM210000 17005KT P6SM BKN250